createdAt,value
2017-03-01T00:00:22.939Z,941.97
2017-03-01T00:01:23.056Z,942.00
2017-03-01T00:02:23.217Z,942.09
2017-03-01T00:03:33.504Z,942.01
2017-03-01T00:04:27.969Z,942.08
2017-03-01T00:05:22.717Z,942.08
2017-03-01T00:06:22.732Z,942.09
2017-03-01T00:07:27.675Z,942.14
2017-03-01T00:08:23.240Z,942.23
2017-03-01T00:09:23.655Z,942.25
2017-03-01T00:10:22.774Z,942.29
2017-03-01T00:11:28.068Z,942.36
2017-03-01T00:12:22.326Z,942.39
2017-03-01T00:13:23.029Z,942.34
2017-03-01T00:14:24.016Z,942.35
2017-03-01T00:15:22.796Z,942.39
2017-03-01T00:16:24.309Z,942.41
2017-03-01T00:17:22.514Z,942.37
2017-03-01T00:18:22.639Z,942.44
2017-03-01T00:19:22.722Z,942.44
2017-03-01T00:20:17.822Z,942.42
2017-03-01T00:21:22.939Z,942.41
2017-03-01T00:22:22.793Z,942.41
2017-03-01T00:23:22.547Z,942.43
2017-03-01T00:24:22.684Z,942.39
2017-03-01T00:25:20.208Z,942.49
2017-03-01T00:26:22.888Z,942.45
2017-03-01T00:27:23.209Z,942.47
2017-03-01T00:28:24.144Z,942.49
2017-03-01T00:29:22.977Z,942.49
2017-03-01T00:30:32.050Z,942.54
2017-03-01T00:31:35.798Z,942.55
2017-03-01T00:32:33.125Z,942.48
2017-03-01T00:33:37.461Z,942.45
2017-03-01T00:34:27.877Z,942.46
2017-03-01T00:35:25.114Z,942.55
2017-03-01T00:36:27.896Z,942.48
2017-03-01T00:37:24.150Z,942.49
2017-03-01T00:38:24.221Z,942.53
2017-03-01T00:39:22.221Z,942.43
2017-03-01T00:40:30.193Z,942.51
2017-03-01T00:41:22.993Z,942.49
2017-03-01T00:42:22.402Z,942.50
2017-03-01T00:43:22.463Z,942.48
2017-03-01T00:44:23.591Z,942.48
2017-03-01T00:45:22.704Z,942.44
2017-03-01T00:46:23.853Z,942.39
2017-03-01T00:47:23.595Z,942.37
2017-03-01T00:48:22.725Z,942.38
2017-03-01T00:49:23.813Z,942.51
2017-03-01T00:50:20.373Z,942.57
2017-03-01T00:51:22.875Z,942.55
2017-03-01T00:52:23.107Z,942.54
2017-03-01T00:53:23.228Z,942.54
2017-03-01T00:54:27.260Z,942.64
2017-03-01T00:55:22.811Z,942.58
2017-03-01T00:56:27.688Z,942.66
2017-03-01T00:57:18.439Z,942.67
2017-03-01T00:58:28.769Z,942.65
2017-03-01T00:59:23.151Z,942.69
2017-03-01T01:00:24.189Z,942.68
2017-03-01T01:01:23.258Z,942.71
2017-03-01T01:02:22.971Z,942.74
2017-03-01T01:03:25.037Z,942.81
2017-03-01T01:04:27.865Z,942.81
2017-03-01T01:05:23.082Z,942.76
2017-03-01T01:06:23.205Z,942.75
2017-03-01T01:07:31.157Z,942.73
2017-03-01T01:08:29.245Z,942.72
2017-03-01T01:09:18.165Z,942.72
2017-03-01T01:10:37.155Z,942.87
2017-03-01T01:11:22.957Z,942.91
2017-03-01T01:12:23.482Z,942.89
2017-03-01T01:13:23.658Z,942.89
2017-03-01T01:14:23.800Z,942.91
2017-03-01T01:15:22.910Z,942.88
2017-03-01T01:16:23.088Z,942.89
2017-03-01T01:17:23.794Z,942.95
2017-03-01T01:18:14.294Z,942.90
2017-03-01T01:19:24.221Z,942.89
2017-03-01T01:20:20.559Z,942.91
2017-03-01T01:21:22.988Z,942.89
2017-03-01T01:22:17.193Z,942.84
2017-03-01T01:23:23.311Z,942.88
2017-03-01T01:24:26.509Z,942.85
2017-03-01T01:25:22.555Z,942.83
2017-03-01T01:26:27.491Z,942.80
2017-03-01T01:27:20.345Z,942.92
2017-03-01T01:28:22.493Z,942.94
2017-03-01T01:29:23.571Z,942.96
2017-03-01T01:30:22.714Z,942.96
2017-03-01T01:31:22.347Z,942.96
2017-03-01T01:32:23.193Z,943.00
2017-03-01T01:33:27.890Z,943.04
2017-03-01T01:34:22.543Z,943.03
2017-03-01T01:35:27.752Z,943.02
2017-03-01T01:36:17.361Z,942.98
2017-03-01T01:37:33.170Z,943.03
2017-03-01T01:38:23.025Z,943.06
2017-03-01T01:39:23.795Z,943.12
2017-03-01T01:40:23.010Z,943.09
2017-03-01T01:41:20.913Z,943.08
2017-03-01T01:42:31.962Z,943.14
2017-03-01T01:43:22.947Z,943.17
2017-03-01T01:44:22.539Z,943.16
2017-03-01T01:45:22.625Z,943.19
2017-03-01T01:46:33.165Z,943.18
2017-03-01T01:47:23.094Z,943.18
2017-03-01T01:48:18.820Z,943.18
2017-03-01T01:49:22.936Z,943.06
2017-03-01T01:50:23.051Z,943.12
2017-03-01T01:51:23.579Z,943.10
2017-03-01T01:52:22.594Z,943.03
2017-03-01T01:53:22.520Z,943.08
2017-03-01T01:54:20.923Z,943.06
2017-03-01T01:55:31.663Z,943.12
2017-03-01T01:56:27.663Z,943.13
2017-03-01T01:57:24.451Z,943.15
2017-03-01T01:58:23.219Z,943.15
2017-03-01T01:59:23.604Z,943.08
2017-03-01T02:00:24.729Z,943.06
2017-03-01T02:01:22.862Z,943.13
2017-03-01T02:02:28.178Z,943.09
2017-03-01T02:03:22.526Z,943.01
2017-03-01T02:04:22.644Z,943.04
2017-03-01T02:05:22.443Z,943.03
2017-03-01T02:06:17.029Z,943.11
2017-03-01T02:07:22.968Z,943.04
2017-03-01T02:08:21.398Z,943.01
2017-03-01T02:09:28.277Z,943.04
2017-03-01T02:10:21.116Z,943.06
2017-03-01T02:11:23.029Z,943.07
2017-03-01T02:12:23.133Z,943.08
2017-03-01T02:13:20.973Z,943.03
2017-03-01T02:14:23.080Z,943.02
2017-03-01T02:15:18.451Z,942.99
2017-03-01T02:16:20.447Z,943.02
2017-03-01T02:17:23.462Z,943.03
2017-03-01T02:18:27.727Z,943.01
2017-03-01T02:19:18.243Z,943.06
2017-03-01T02:20:32.345Z,943.15
2017-03-01T02:21:22.961Z,943.14
2017-03-01T02:22:22.944Z,943.21
2017-03-01T02:23:22.237Z,943.26
2017-03-01T02:24:22.364Z,943.30
2017-03-01T02:25:23.119Z,943.25
2017-03-01T02:26:23.824Z,943.29
2017-03-01T02:27:22.890Z,943.21
2017-03-01T02:28:22.607Z,943.10
2017-03-01T02:29:22.729Z,943.13
2017-03-01T02:30:22.849Z,943.10
2017-03-01T02:31:25.086Z,943.15
2017-03-01T02:32:23.100Z,943.06
2017-03-01T02:33:24.143Z,943.16
2017-03-01T02:34:25.832Z,943.19
2017-03-01T02:35:23.131Z,943.17
2017-03-01T02:36:31.549Z,943.22
2017-03-01T02:37:22.687Z,943.25
2017-03-01T02:38:44.177Z,943.17
2017-03-01T02:39:27.916Z,943.20
2017-03-01T02:40:20.477Z,943.23
2017-03-01T02:41:23.035Z,943.31
2017-03-01T02:42:21.453Z,943.26
2017-03-01T02:43:24.182Z,943.20
2017-03-01T02:44:27.481Z,943.14
2017-03-01T02:45:18.761Z,943.18
2017-03-01T02:46:23.912Z,943.21
2017-03-01T02:47:23.059Z,943.18
2017-03-01T02:48:19.377Z,943.16
2017-03-01T02:49:24.294Z,943.19
2017-03-01T02:50:27.929Z,943.19
2017-03-01T02:51:17.116Z,943.10
2017-03-01T02:52:23.262Z,943.07
2017-03-01T02:53:35.130Z,943.11
2017-03-01T02:54:23.244Z,943.16
2017-03-01T02:55:23.262Z,943.18
2017-03-01T02:56:22.370Z,943.16
2017-03-01T02:57:27.542Z,943.20
2017-03-01T02:58:32.876Z,943.29
2017-03-01T02:59:23.457Z,943.28
2017-03-01T03:00:23.567Z,943.31
2017-03-01T03:01:23.303Z,943.29
2017-03-01T03:02:20.946Z,943.27
2017-03-01T03:03:32.521Z,943.25
2017-03-01T03:04:22.663Z,943.21
2017-03-01T03:05:22.786Z,943.19
2017-03-01T03:06:26.601Z,943.12
2017-03-01T03:07:22.296Z,943.03
2017-03-01T03:08:23.174Z,943.09
2017-03-01T03:09:18.487Z,943.00
2017-03-01T03:10:35.216Z,943.04
2017-03-01T03:11:27.460Z,943.05
2017-03-01T03:12:22.546Z,943.04
2017-03-01T03:13:24.236Z,943.06
2017-03-01T03:14:20.705Z,943.07
2017-03-01T03:15:22.792Z,943.10
2017-03-01T03:16:23.894Z,943.04
2017-03-01T03:17:17.426Z,943.07
2017-03-01T03:18:22.832Z,943.06
2017-03-01T03:19:27.905Z,943.07
2017-03-01T03:20:23.083Z,943.20
2017-03-01T03:21:23.234Z,942.96
2017-03-01T03:22:22.324Z,942.95
2017-03-01T03:23:17.375Z,942.87
2017-03-01T03:24:23.121Z,942.98
2017-03-01T03:25:22.506Z,942.96
2017-03-01T03:26:22.594Z,942.91
2017-03-01T03:27:23.250Z,942.95
2017-03-01T03:29:23.118Z,943.00
2017-03-01T03:30:33.397Z,942.88
2017-03-01T03:31:22.679Z,942.95
2017-03-01T03:32:22.831Z,942.93
2017-03-01T03:33:27.067Z,943.00
2017-03-01T03:34:23.147Z,943.06
2017-03-01T03:35:17.944Z,943.11
2017-03-01T03:36:23.978Z,943.19
2017-03-01T03:37:23.109Z,943.17
2017-03-01T03:38:28.009Z,943.07
2017-03-01T03:39:22.677Z,943.05
2017-03-01T03:40:27.406Z,943.05
2017-03-01T03:41:23.661Z,943.10
2017-03-01T03:42:27.817Z,943.04
2017-03-01T03:43:23.976Z,943.10
2017-03-01T03:44:23.074Z,943.13
2017-03-01T03:45:23.197Z,943.12
2017-03-01T03:46:28.009Z,943.07
2017-03-01T03:47:23.151Z,943.11
2017-03-01T03:48:22.805Z,943.16
2017-03-01T03:49:39.380Z,943.08
2017-03-01T03:50:20.484Z,943.11
2017-03-01T03:51:22.720Z,943.14
2017-03-01T03:52:22.663Z,943.06
2017-03-01T03:53:22.725Z,943.10
2017-03-01T03:54:22.837Z,943.10
2017-03-01T03:55:22.609Z,943.11
2017-03-01T03:56:26.287Z,943.15
2017-03-01T03:57:22.512Z,943.16
2017-03-01T03:58:22.627Z,943.15
2017-03-01T03:59:22.778Z,943.19
2017-03-01T04:00:22.891Z,943.18
2017-03-01T04:01:31.587Z,943.21
2017-03-01T04:02:18.759Z,943.25
2017-03-01T04:03:22.803Z,943.22
2017-03-01T04:04:22.926Z,943.24
2017-03-01T04:05:28.967Z,943.29
2017-03-01T04:06:23.731Z,943.28
2017-03-01T04:07:22.968Z,943.32
2017-03-01T04:08:23.028Z,943.30
2017-03-01T04:09:23.132Z,943.32
2017-03-01T04:10:21.939Z,943.35
2017-03-01T04:11:33.809Z,943.34
2017-03-01T04:12:34.318Z,943.30
2017-03-01T04:13:32.167Z,943.31
2017-03-01T04:14:19.615Z,943.28
2017-03-01T04:15:23.727Z,943.30
2017-03-01T04:16:24.050Z,943.33
2017-03-01T04:17:18.211Z,943.39
2017-03-01T04:18:23.901Z,943.38
2017-03-01T04:19:24.054Z,943.38
2017-03-01T04:20:18.919Z,943.36
2017-03-01T04:21:23.982Z,943.41
2017-03-01T04:22:19.196Z,943.48
2017-03-01T04:23:22.428Z,943.50
2017-03-01T04:24:32.956Z,943.44
2017-03-01T04:25:32.351Z,943.50
2017-03-01T04:26:24.038Z,943.49
2017-03-01T04:27:24.163Z,943.50
2017-03-01T04:28:18.298Z,943.52
2017-03-01T04:29:23.420Z,943.55
2017-03-01T04:30:22.507Z,943.56
2017-03-01T04:31:27.841Z,943.51
2017-03-01T04:32:22.972Z,943.52
2017-03-01T04:33:22.944Z,943.54
2017-03-01T04:34:23.439Z,943.54
2017-03-01T04:35:18.156Z,943.53
2017-03-01T04:36:21.933Z,943.51
2017-03-01T04:37:22.002Z,943.51
2017-03-01T04:38:24.080Z,943.53
2017-03-01T04:39:24.084Z,943.48
2017-03-01T04:40:24.218Z,943.51
2017-03-01T04:41:22.922Z,943.48
2017-03-01T04:42:22.949Z,943.49
2017-03-01T04:43:23.058Z,943.50
2017-03-01T04:44:23.121Z,943.49
2017-03-01T04:45:20.812Z,943.45
2017-03-01T04:46:22.681Z,943.41
2017-03-01T04:47:28.018Z,943.38
2017-03-01T04:48:23.471Z,943.39
2017-03-01T04:49:21.067Z,943.39
2017-03-01T04:50:31.459Z,943.37
2017-03-01T04:51:22.575Z,943.38
2017-03-01T04:52:18.367Z,943.29
2017-03-01T04:53:24.416Z,943.27
2017-03-01T04:54:22.538Z,943.28
2017-03-01T04:55:24.242Z,943.32
2017-03-01T04:56:22.699Z,943.28
2017-03-01T04:57:32.837Z,943.25
2017-03-01T04:58:33.791Z,943.28
2017-03-01T04:59:22.960Z,943.31
2017-03-01T05:00:18.667Z,943.32
2017-03-01T05:01:19.223Z,943.34
2017-03-01T05:02:23.704Z,943.39
2017-03-01T05:03:20.943Z,943.35
2017-03-01T05:04:23.070Z,943.38
2017-03-01T05:05:22.608Z,943.42
2017-03-01T05:06:22.758Z,943.40
2017-03-01T05:07:27.764Z,943.42
2017-03-01T05:08:23.140Z,943.38
2017-03-01T05:09:23.273Z,943.44
2017-03-01T05:10:21.911Z,943.44
2017-03-01T05:11:26.297Z,943.48
2017-03-01T05:12:23.046Z,943.51
2017-03-01T05:13:22.787Z,943.47
2017-03-01T05:14:22.906Z,943.46
2017-03-01T05:15:17.989Z,943.46
2017-03-01T05:16:22.353Z,943.45
2017-03-01T05:17:22.546Z,943.54
2017-03-01T05:18:32.301Z,943.52
2017-03-01T05:19:32.396Z,943.52
2017-03-01T05:20:17.946Z,943.56
2017-03-01T05:21:20.371Z,943.55
2017-03-01T05:22:24.082Z,943.57
2017-03-01T05:23:31.557Z,943.56
2017-03-01T05:24:22.703Z,943.56
2017-03-01T05:26:27.034Z,943.58
2017-03-01T05:27:24.237Z,943.64
2017-03-01T05:28:27.751Z,943.67
2017-03-01T05:29:18.773Z,943.64
2017-03-01T05:30:23.700Z,943.63
2017-03-01T05:31:32.685Z,943.62
2017-03-01T05:32:22.974Z,943.65
2017-03-01T05:33:33.020Z,943.66
2017-03-01T05:34:25.791Z,943.65
2017-03-01T05:35:27.508Z,943.71
2017-03-01T05:36:21.279Z,943.63
2017-03-01T05:37:22.537Z,943.67
2017-03-01T05:38:18.015Z,943.65
2017-03-01T05:39:22.124Z,943.67
2017-03-01T05:40:26.842Z,943.71
2017-03-01T05:41:20.656Z,943.71
2017-03-01T05:42:23.697Z,943.67
2017-03-01T05:43:22.834Z,943.70
2017-03-01T05:44:22.406Z,943.70
2017-03-01T05:45:22.910Z,943.70
2017-03-01T05:46:22.510Z,943.66
2017-03-01T05:47:21.904Z,943.71
2017-03-01T05:48:25.571Z,943.74
2017-03-01T05:49:23.749Z,943.78
2017-03-01T05:50:22.870Z,943.70
2017-03-01T05:51:22.632Z,943.74
2017-03-01T05:52:22.941Z,943.75
2017-03-01T05:53:29.054Z,943.83
2017-03-01T05:54:23.209Z,943.79
2017-03-01T05:55:26.258Z,943.79
2017-03-01T05:56:20.199Z,943.85
2017-03-01T05:57:27.408Z,943.84
2017-03-01T05:58:22.952Z,943.76
2017-03-01T05:59:25.508Z,943.86
2017-03-01T06:00:18.540Z,943.84
2017-03-01T06:01:23.311Z,943.88
2017-03-01T06:02:22.454Z,943.89
2017-03-01T06:03:27.741Z,943.75
2017-03-01T06:04:33.013Z,943.91
2017-03-01T06:05:22.985Z,943.87
2017-03-01T06:06:23.211Z,943.94
2017-03-01T06:07:22.918Z,943.90
2017-03-01T06:08:23.614Z,943.89
2017-03-01T06:09:22.740Z,943.91
2017-03-01T06:10:22.781Z,943.91
2017-03-01T06:11:23.654Z,943.89
2017-03-01T06:12:17.759Z,943.94
2017-03-01T06:13:23.017Z,943.94
2017-03-01T06:14:22.404Z,943.93
2017-03-01T06:15:27.524Z,943.95
2017-03-01T06:16:22.197Z,943.97
2017-03-01T06:17:24.057Z,943.95
2017-03-01T06:18:22.071Z,944.01
2017-03-01T06:19:27.508Z,943.98
2017-03-01T06:20:22.630Z,943.94
2017-03-01T06:22:27.726Z,944.02
2017-03-01T06:23:23.107Z,944.00
2017-03-01T06:24:22.697Z,943.97
2017-03-01T06:25:31.575Z,943.95
2017-03-01T06:26:32.781Z,943.94
2017-03-01T06:28:29.048Z,944.02
2017-03-01T06:29:18.183Z,944.00
2017-03-01T06:30:27.858Z,944.02
2017-03-01T06:31:22.133Z,943.97
2017-03-01T06:32:21.791Z,944.08
2017-03-01T06:33:22.808Z,944.10
2017-03-01T06:34:22.503Z,944.08
2017-03-01T06:35:22.602Z,944.13
2017-03-01T06:36:17.344Z,944.17
2017-03-01T06:37:22.412Z,944.25
2017-03-01T06:38:22.530Z,944.23
2017-03-01T06:39:24.431Z,944.24
2017-03-01T06:40:27.090Z,944.33
2017-03-01T06:41:19.620Z,944.32
2017-03-01T06:42:23.788Z,944.32
2017-03-01T06:43:24.225Z,944.37
2017-03-01T06:44:23.313Z,944.40
2017-03-01T06:45:26.369Z,944.42
2017-03-01T06:46:22.146Z,944.45
2017-03-01T06:47:29.808Z,944.51
2017-03-01T06:48:29.377Z,944.55
2017-03-01T06:49:22.805Z,944.62
2017-03-01T06:50:22.663Z,944.63
2017-03-01T06:51:22.786Z,944.62
2017-03-01T06:52:24.578Z,944.71
2017-03-01T06:53:17.155Z,944.74
2017-03-01T06:54:22.372Z,944.77
2017-03-01T06:55:32.255Z,944.78
2017-03-01T06:56:22.670Z,944.79
2017-03-01T06:57:17.041Z,944.83
2017-03-01T06:58:17.598Z,944.83
2017-03-01T06:59:22.515Z,944.95
2017-03-01T07:00:17.549Z,944.80
2017-03-01T07:01:17.478Z,944.95
2017-03-01T07:02:22.844Z,944.83
2017-03-01T07:03:17.306Z,944.88
2017-03-01T07:04:28.236Z,944.98
2017-03-01T07:05:27.729Z,944.94
2017-03-01T07:06:18.642Z,944.91
2017-03-01T07:08:23.091Z,944.91
2017-03-01T07:09:18.670Z,944.96
2017-03-01T07:10:22.753Z,945.04
2017-03-01T07:11:27.632Z,944.97
2017-03-01T07:12:24.094Z,944.94
2017-03-01T07:13:23.352Z,945.00
2017-03-01T07:14:18.435Z,945.01
2017-03-01T07:15:18.255Z,945.07
2017-03-01T07:16:23.679Z,945.09
2017-03-01T07:17:23.685Z,945.05
2017-03-01T07:18:17.715Z,945.09
2017-03-01T07:19:25.216Z,945.06
2017-03-01T07:20:28.555Z,945.13
2017-03-01T07:21:21.880Z,945.18
2017-03-01T07:24:23.172Z,945.26
2017-03-01T07:25:27.512Z,945.30
2017-03-01T07:26:22.679Z,945.26
2017-03-01T07:27:17.290Z,945.41
2017-03-01T07:28:22.523Z,945.35
2017-03-01T07:29:21.929Z,945.42
2017-03-01T07:30:19.019Z,945.31
2017-03-01T07:31:23.152Z,945.41
2017-03-01T07:32:23.210Z,945.43
2017-03-01T07:33:27.573Z,945.37
2017-03-01T07:34:24.306Z,945.37
2017-03-01T07:35:22.407Z,945.41
2017-03-01T07:36:33.712Z,945.40
2017-03-01T07:37:22.968Z,945.35
2017-03-01T07:38:31.714Z,945.26
2017-03-01T07:39:20.814Z,945.26
2017-03-01T07:40:26.423Z,945.20
2017-03-01T07:41:23.318Z,945.37
2017-03-01T07:42:21.046Z,945.33
2017-03-01T07:43:23.196Z,945.23
2017-03-01T07:44:21.461Z,945.39
2017-03-01T07:45:30.038Z,945.38
2017-03-01T07:46:23.206Z,945.46
2017-03-01T07:47:17.597Z,945.32
2017-03-01T07:48:24.034Z,945.38
2017-03-01T07:49:21.044Z,945.32
2017-03-01T07:50:19.488Z,945.41
2017-03-01T07:51:22.631Z,945.52
2017-03-01T07:52:27.983Z,945.76
2017-03-01T07:53:17.725Z,945.69
2017-03-01T07:54:18.418Z,945.51
2017-03-01T07:55:19.552Z,945.53
2017-03-01T07:56:28.490Z,945.59
2017-03-01T07:57:22.664Z,945.56
2017-03-01T07:58:22.853Z,945.54
2017-03-01T07:59:23.200Z,945.58
2017-03-01T08:00:18.393Z,945.55
2017-03-01T08:01:17.481Z,945.57
2017-03-01T08:02:12.975Z,945.58
2017-03-01T08:03:24.087Z,945.59
2017-03-01T08:04:27.198Z,945.60
2017-03-01T08:05:22.944Z,945.64
2017-03-01T08:06:18.248Z,945.60
2017-03-01T08:07:22.456Z,945.68
2017-03-01T08:09:22.325Z,945.66
2017-03-01T08:10:31.586Z,945.67
2017-03-01T08:11:33.039Z,945.68
2017-03-01T08:12:23.758Z,945.75
2017-03-01T08:13:26.006Z,945.68
2017-03-01T08:14:25.544Z,945.68
2017-03-01T08:16:23.016Z,945.71
2017-03-01T08:17:24.108Z,945.76
2017-03-01T08:18:28.285Z,945.76
2017-03-01T08:19:32.606Z,945.86
2017-03-01T08:20:28.731Z,945.86
2017-03-01T08:21:20.085Z,945.89
2017-03-01T08:22:17.610Z,945.78
2017-03-01T08:23:22.830Z,945.79
2017-03-01T08:24:23.508Z,945.97
2017-03-01T08:25:23.113Z,945.81
2017-03-01T08:26:17.268Z,945.93
2017-03-01T08:27:17.522Z,945.90
2017-03-01T08:28:27.097Z,945.74
2017-03-01T08:29:22.873Z,945.95
2017-03-01T08:31:24.491Z,946.10
2017-03-01T08:32:23.237Z,945.89
2017-03-01T08:33:23.836Z,945.91
2017-03-01T08:34:26.816Z,946.18
2017-03-01T08:35:24.922Z,946.05
2017-03-01T08:36:23.033Z,945.95
2017-03-01T08:37:27.121Z,945.95
2017-03-01T08:38:21.520Z,945.99
2017-03-01T08:39:22.545Z,946.04
2017-03-01T08:40:22.703Z,946.12
2017-03-01T08:41:22.632Z,946.24
2017-03-01T08:42:22.945Z,946.08
2017-03-01T08:43:22.769Z,946.28
2017-03-01T08:44:22.869Z,946.34
2017-03-01T08:45:22.882Z,946.23
2017-03-01T08:46:22.986Z,946.30
2017-03-01T08:47:32.327Z,946.39
2017-03-01T08:48:24.981Z,946.42
2017-03-01T08:49:27.076Z,946.28
2017-03-01T08:50:28.468Z,946.43
2017-03-01T08:51:28.070Z,946.49
2017-03-01T08:52:32.911Z,946.48
2017-03-01T08:53:23.466Z,946.47
2017-03-01T08:54:22.570Z,946.46
2017-03-01T08:55:32.071Z,946.40
2017-03-01T08:56:23.793Z,946.48
2017-03-01T08:57:22.965Z,946.42
2017-03-01T08:58:27.882Z,946.47
2017-03-01T08:59:22.667Z,946.47
2017-03-01T09:00:18.408Z,946.50
2017-03-01T09:01:27.598Z,946.49
2017-03-01T09:02:22.451Z,946.56
2017-03-01T09:03:18.697Z,946.59
2017-03-01T09:04:22.273Z,946.48
2017-03-01T09:05:22.985Z,946.54
2017-03-01T09:06:32.515Z,946.57
2017-03-01T09:07:22.130Z,946.50
2017-03-01T09:08:27.962Z,946.57
2017-03-01T09:09:21.158Z,946.49
2017-03-01T09:10:28.026Z,946.58
2017-03-01T09:11:27.332Z,946.55
2017-03-01T09:12:24.143Z,946.57
2017-03-01T09:13:18.187Z,946.58
2017-03-01T09:14:18.110Z,946.57
2017-03-01T09:15:23.999Z,946.62
2017-03-01T09:16:23.125Z,946.62
2017-03-01T09:17:27.517Z,946.52
2017-03-01T09:18:23.837Z,946.49
2017-03-01T09:19:18.713Z,946.60
2017-03-01T09:20:28.037Z,946.65
2017-03-01T09:21:33.176Z,946.69
2017-03-01T09:22:27.969Z,946.76
2017-03-01T09:23:21.417Z,946.78
2017-03-01T09:24:23.544Z,946.75
2017-03-01T09:25:24.169Z,946.71
2017-03-01T09:26:23.502Z,946.72
2017-03-01T09:27:22.599Z,946.86
2017-03-01T09:28:22.722Z,946.77
2017-03-01T09:29:23.173Z,946.80
2017-03-01T09:30:21.587Z,946.90
2017-03-01T09:31:31.859Z,946.86
2017-03-01T09:32:17.124Z,946.98
2017-03-01T09:33:27.724Z,946.86
2017-03-01T09:34:18.724Z,946.91
2017-03-01T09:35:23.071Z,946.83
2017-03-01T09:36:27.307Z,946.88
2017-03-01T09:37:28.434Z,946.84
2017-03-01T09:38:19.562Z,946.93
2017-03-01T09:39:22.684Z,946.91
2017-03-01T09:40:28.040Z,946.88
2017-03-01T09:41:23.341Z,946.86
2017-03-01T09:42:23.203Z,946.82
2017-03-01T09:43:19.689Z,946.88
2017-03-01T09:44:23.944Z,946.83
2017-03-01T09:45:28.145Z,946.80
2017-03-01T09:46:23.803Z,946.85
2017-03-01T09:47:23.931Z,946.82
2017-03-01T09:48:27.175Z,946.76
2017-03-01T09:49:26.749Z,946.80
2017-03-01T09:50:27.285Z,946.84
2017-03-01T09:51:22.791Z,946.87
2017-03-01T09:52:23.911Z,946.88
2017-03-01T09:53:23.237Z,946.87
2017-03-01T09:54:23.074Z,946.89
2017-03-01T09:55:23.207Z,946.88
2017-03-01T09:56:23.079Z,946.86
2017-03-01T09:57:21.944Z,946.92
2017-03-01T09:58:23.046Z,946.94
2017-03-01T09:59:23.188Z,946.91
2017-03-01T10:00:24.450Z,946.91
2017-03-01T10:01:22.681Z,946.89
2017-03-01T10:02:22.814Z,946.91
2017-03-01T10:03:22.563Z,946.86
2017-03-01T10:04:27.953Z,946.93
2017-03-01T10:05:23.537Z,946.93
2017-03-01T10:06:27.470Z,946.95
2017-03-01T10:07:23.312Z,946.94
2017-03-01T10:08:19.522Z,946.91
2017-03-01T10:09:22.633Z,946.95
2017-03-01T10:10:22.750Z,946.91
2017-03-01T10:11:19.170Z,946.98
2017-03-01T10:12:24.314Z,946.89
2017-03-01T10:13:23.392Z,946.90
2017-03-01T10:14:23.495Z,947.00
2017-03-01T10:15:22.877Z,947.00
2017-03-01T10:16:17.730Z,946.94
2017-03-01T10:17:37.667Z,947.07
2017-03-01T10:18:29.014Z,947.05
2017-03-01T10:19:23.230Z,947.14
2017-03-01T10:20:29.048Z,947.08
2017-03-01T10:21:27.495Z,947.13
2017-03-01T10:22:31.455Z,947.09
2017-03-01T10:23:27.380Z,947.10
2017-03-01T10:24:23.744Z,947.23
2017-03-01T10:25:25.606Z,947.20
2017-03-01T10:26:25.730Z,947.29
2017-03-01T10:27:24.200Z,947.20
2017-03-01T10:28:27.505Z,947.05
2017-03-01T10:29:32.961Z,947.14
2017-03-01T10:30:27.607Z,947.26
2017-03-01T10:31:19.361Z,947.22
2017-03-01T10:32:22.493Z,947.24
2017-03-01T10:33:24.003Z,947.32
2017-03-01T10:34:24.132Z,947.33
2017-03-01T10:35:28.037Z,947.34
2017-03-01T10:36:23.091Z,947.35
2017-03-01T10:37:23.213Z,947.40
2017-03-01T10:38:22.367Z,947.39
2017-03-01T10:39:22.493Z,947.30
2017-03-01T10:40:22.863Z,947.38
2017-03-01T10:41:17.461Z,947.46
2017-03-01T10:42:22.886Z,947.39
2017-03-01T10:43:22.557Z,947.40
2017-03-01T10:44:24.286Z,947.36
2017-03-01T10:45:22.360Z,947.41
2017-03-01T10:46:33.024Z,947.41
2017-03-01T10:47:37.394Z,947.38
2017-03-01T10:48:24.186Z,947.38
2017-03-01T10:49:19.523Z,947.37
2017-03-01T10:50:23.643Z,947.37
2017-03-01T10:51:22.811Z,947.46
2017-03-01T10:52:23.305Z,947.40
2017-03-01T10:53:27.611Z,947.47
2017-03-01T10:54:23.461Z,947.39
2017-03-01T10:55:34.408Z,947.33
2017-03-01T10:56:27.137Z,947.42
2017-03-01T10:57:22.713Z,947.40
2017-03-01T10:58:23.739Z,947.46
2017-03-01T10:59:27.356Z,947.38
2017-03-01T11:00:22.526Z,947.43
2017-03-01T11:01:27.845Z,947.38
2017-03-01T11:02:22.993Z,947.46
2017-03-01T11:03:21.963Z,947.49
2017-03-01T11:04:18.149Z,947.45
2017-03-01T11:05:23.247Z,947.37
2017-03-01T11:06:23.487Z,947.37
2017-03-01T11:07:23.549Z,947.40
2017-03-01T11:08:23.670Z,947.36
2017-03-01T11:09:22.440Z,947.29
2017-03-01T11:10:16.969Z,947.24
2017-03-01T11:11:23.551Z,947.26
2017-03-01T11:12:22.620Z,947.31
2017-03-01T11:13:22.768Z,947.27
2017-03-01T11:14:22.890Z,947.27
2017-03-01T11:15:22.335Z,947.20
2017-03-01T11:16:24.036Z,947.23
2017-03-01T11:17:18.998Z,947.18
2017-03-01T11:18:21.848Z,947.28
2017-03-01T11:19:22.996Z,947.27
2017-03-01T11:20:22.201Z,947.18
2017-03-01T11:21:22.379Z,947.27
2017-03-01T11:22:26.990Z,947.11
2017-03-01T11:23:23.053Z,947.18
2017-03-01T11:24:23.169Z,947.27
2017-03-01T11:25:19.229Z,947.25
2017-03-01T11:26:22.861Z,947.28
2017-03-01T11:27:22.602Z,947.22
2017-03-01T11:28:22.661Z,947.25
2017-03-01T11:29:18.732Z,947.25
2017-03-01T11:30:27.103Z,947.12
2017-03-01T11:31:22.103Z,947.15
2017-03-01T11:32:23.682Z,947.12
2017-03-01T11:33:22.503Z,947.17
2017-03-01T11:34:17.581Z,947.10
2017-03-01T11:35:22.616Z,947.29
2017-03-01T11:36:27.691Z,946.99
2017-03-01T11:37:23.616Z,947.22
2017-03-01T11:38:23.671Z,947.07
2017-03-01T11:39:22.504Z,947.11
2017-03-01T11:40:22.651Z,947.08
2017-03-01T11:41:24.675Z,947.12
2017-03-01T11:42:22.839Z,947.16
2017-03-01T11:43:26.145Z,947.12
2017-03-01T11:44:25.111Z,946.97
2017-03-01T11:45:24.225Z,947.06
2017-03-01T11:46:22.587Z,947.02
2017-03-01T11:47:27.652Z,947.08
2017-03-01T11:48:22.567Z,947.01
2017-03-01T11:49:27.818Z,947.07
2017-03-01T11:50:26.527Z,947.03
2017-03-01T11:51:22.491Z,947.08
2017-03-01T11:52:22.181Z,947.10
2017-03-01T11:53:22.862Z,947.06
2017-03-01T11:54:22.521Z,947.20
2017-03-01T11:55:18.668Z,947.11
2017-03-01T11:56:24.111Z,947.06
2017-03-01T11:57:17.928Z,947.14
2017-03-01T11:58:24.064Z,947.20
2017-03-01T11:59:23.210Z,947.27
2017-03-01T12:00:23.098Z,947.23
2017-03-01T12:01:24.740Z,947.28
2017-03-01T12:02:22.409Z,947.27
2017-03-01T12:03:19.416Z,947.29
2017-03-01T12:04:22.298Z,947.31
2017-03-01T12:05:32.645Z,947.19
2017-03-01T12:06:27.052Z,947.21
2017-03-01T12:07:21.675Z,947.30
2017-03-01T12:08:22.799Z,947.24
2017-03-01T12:09:17.933Z,947.22
2017-03-01T12:10:23.591Z,947.15
2017-03-01T12:11:21.434Z,947.27
2017-03-01T12:12:20.722Z,947.14
2017-03-01T12:13:24.037Z,947.15
2017-03-01T12:14:28.319Z,947.25
2017-03-01T12:15:22.426Z,947.10
2017-03-01T12:16:18.908Z,947.18
2017-03-01T12:17:23.323Z,947.28
2017-03-01T12:18:12.601Z,947.27
2017-03-01T12:19:31.953Z,947.20
2017-03-01T12:20:22.598Z,947.31
2017-03-01T12:21:19.929Z,947.25
2017-03-01T12:22:28.837Z,947.29
2017-03-01T12:23:29.047Z,947.27
2017-03-01T12:24:24.169Z,947.35
2017-03-01T12:25:22.373Z,947.35
2017-03-01T12:26:22.741Z,947.38
2017-03-01T12:27:18.031Z,947.34
2017-03-01T12:28:22.467Z,947.29
2017-03-01T12:29:12.603Z,947.34
2017-03-01T12:30:23.487Z,947.34
2017-03-01T12:31:22.596Z,947.32
2017-03-01T12:32:22.729Z,947.30
2017-03-01T12:33:20.194Z,947.28
2017-03-01T12:34:23.307Z,947.30
2017-03-01T12:35:19.631Z,947.40
2017-03-01T12:36:22.756Z,947.34
2017-03-01T12:37:22.525Z,947.22
2017-03-01T12:38:18.384Z,947.23